Time;durP1;ratioP1;P1;durP2;ratioP2;P2;SDS_P1;SDS_P2;PMS_P1;PMS_P2;Temp;Humidity;BMP_temperature;BMP_pressure;BME280_temperature;BME280_humidity;BME280_pressure;Samples;Min_cycle;Max_cycle;Signal;HPM_P1;HPM_P2
2022/12/07 00:01:32;;;;;;;7.38;2.15;;;5.00;99.90;;;;;;5055277;28;20053;-83
2022/12/07 00:04:05;;;;;;;9.32;2.00;;;5.00;99.90;;;;;;5034759;28;20037;-83
2022/12/07 00:06:33;;;;;;;9.73;2.17;;;5.00;99.90;;;;;;5032687;28;20053;-83
2022/12/07 00:08:59;;;;;;;5.90;1.90;;;5.30;99.90;;;;;;5053763;28;20040;-83
2022/12/07 00:11:25;;;;;;;11.50;2.38;;;5.00;99.90;;;;;;5055599;28;20079;-83
2022/12/07 00:13:53;;;;;;;12.25;2.25;;;6.30;99.90;;;;;;5034183;28;20055;-83
2022/12/07 00:16:20;;;;;;;10.55;2.08;;;5.00;99.90;;;;;;5033166;28;20099;-83
2022/12/07 00:18:46;;;;;;;9.27;2.45;;;5.10;99.90;;;;;;5052130;28;20085;-83
2022/12/07 00:21:15;;;;;;;9.32;2.22;;;5.90;99.90;;;;;;5017865;28;20083;-82
2022/12/07 00:23:43;;;;;;;10.32;2.00;;;6.20;99.90;;;;;;5029382;28;20065;-83
2022/12/07 00:26:24;;;;;;;8.48;2.13;;;5.20;99.90;;;;;;4998023;28;20046;-83
2022/12/07 00:28:52;;;;;;;9.20;2.30;;;5.20;99.90;;;;;;5014503;28;20049;-82
2022/12/07 00:31:20;;;;;;;9.80;2.08;;;5.90;99.90;;;;;;4997753;28;20049;-83
2022/12/07 00:33:46;;;;;;;15.50;2.22;;;5.40;99.90;;;;;;5014337;28;20050;-83
2022/12/07 00:36:15;;;;;;;7.53;1.92;;;5.20;99.90;;;;;;5013985;28;20057;-83
2022/12/07 00:38:41;;;;;;;7.93;1.95;;;6.10;99.90;;;;;;5014248;28;20054;-83
2022/12/07 00:41:18;;;;;;;8.07;1.90;;;5.20;99.90;;;;;;5014327;28;20080;-83
2022/12/07 00:43:45;;;;;;;7.15;2.10;;;5.20;99.90;;;;;;5014388;28;20049;-83
2022/12/07 00:46:12;;;;;;;11.30;2.20;;;6.70;99.90;;;;;;5032096;28;20053;-83
2022/12/07 00:48:38;;;;;;;7.53;2.70;;;5.30;99.90;;;;;;5032417;28;20429;-83
2022/12/07 00:51:04;;;;;;;9.13;2.13;;;5.30;99.90;;;;;;5032065;28;20053;-82
2022/12/07 00:53:30;;;;;;;9.68;1.70;;;5.20;99.90;;;;;;5031772;28;20137;-83
2022/12/07 00:55:56;;;;;;;6.80;2.00;;;5.30;99.90;;;;;;5014285;28;20132;-83
2022/12/07 00:58:23;;;;;;;7.38;1.83;;;5.30;99.90;;;;;;5034147;28;20049;-82
2022/12/07 01:00:49;;;;;;;7.25;1.58;;;6.10;99.90;;;;;;5053484;28;20051;-83
2022/12/07 01:03:15;;;;;;;8.77;1.95;;;4.50;99.90;;;;;;5037422;28;20387;-83
2022/12/07 01:05:51;;;;;;;5.47;1.67;;;5.30;99.90;;;;;;5055239;28;20051;-83
2022/12/07 01:08:16;;;;;;;6.05;1.88;;;5.30;99.90;;;;;;5055599;28;20040;-82
2022/12/07 01:10:42;;;;;;;6.45;1.50;;;5.40;99.90;;;;;;5037208;28;20132;-83
2022/12/07 01:13:08;;;;;;;6.25;1.58;;;5.80;99.90;;;;;;5039376;28;20060;-83
2022/12/07 01:15:34;;;;;;;6.60;1.58;;;5.40;99.90;;;;;;5033494;28;20243;-83
2022/12/07 01:17:59;;;;;;;7.32;1.80;;;5.50;99.90;;;;;;5037956;28;20505;-83
2022/12/07 01:20:25;;;;;;;5.07;1.50;;;5.50;99.90;;;;;;5044587;28;20045;-83
2022/12/07 01:22:50;;;;;;;9.82;1.85;;;5.40;99.90;;;;;;5042322;28;20149;-83
2022/12/07 01:25:16;;;;;;;9.15;1.70;;;5.40;99.90;;;;;;5017143;28;20056;-83
2022/12/07 01:27:42;;;;;;;9.00;2.10;;;5.40;99.90;;;;;;5033987;28;20052;-83
2022/12/07 01:30:10;;;;;;;8.55;2.33;;;6.60;99.90;;;;;;5045910;28;20057;-83
2022/12/07 01:32:36;;;;;;;10.25;1.95;;;5.40;99.90;;;;;;5062800;28;20060;-83
2022/12/07 01:35:01;;;;;;;6.32;1.90;;;5.30;99.90;;;;;;5051895;28;20049;-82
2022/12/07 01:37:27;;;;;;;8.77;1.95;;;5.50;99.90;;;;;;5037193;28;20150;-82
2022/12/07 01:39:53;;;;;;;8.27;1.52;;;5.60;99.90;;;;;;5054519;28;20041;-82
2022/12/07 01:42:19;;;;;;;11.63;1.90;;;5.70;99.90;;;;;;5037009;28;20053;-83
2022/12/07 01:45:18;;;;;;;8.20;1.65;;;5.70;99.90;;;;;;5054823;28;20049;-83
2022/12/07 01:47:58;;;;;;;7.18;1.63;;;5.60;99.90;;;;;;5028345;28;20108;-83
2022/12/07 01:50:27;;;;;;;5.85;1.52;;;5.50;99.90;;;;;;5000540;28;20085;-83
2022/12/07 01:52:56;;;;;;;4.55;1.40;;;5.50;99.90;;;;;;5000327;28;20075;-83
2022/12/07 01:55:22;;;;;;;8.25;1.52;;;6.80;99.90;;;;;;5000303;28;20049;-82
2022/12/07 01:57:50;;;;;;;10.43;1.88;;;5.40;99.90;;;;;;5033113;28;20078;-83
2022/12/07 02:00:17;;;;;;;6.72;1.83;;;5.40;99.90;;;;;;5016750;28;20132;-83
2022/12/07 02:02:59;;;;;;;10.75;1.98;;;5.40;99.90;;;;;;5063249;28;20055;-82
2022/12/07 02:05:26;;;;;;;8.75;2.20;;;5.30;99.90;;;;;;5071800;28;20467;-83
2022/12/07 02:07:55;;;;;;;5.57;2.00;;;5.30;99.90;;;;;;5039039;28;20056;-82
2022/12/07 02:10:29;;;;;;;6.97;1.90;;;5.30;99.90;;;;;;5055419;28;20044;-83
2022/12/07 02:13:04;;;;;;;7.75;1.88;;;5.30;99.90;;;;;;5059475;28;20053;-82
2022/12/07 02:16:01;;;;;;;7.07;2.30;;;5.40;99.90;;;;;;5051465;28;20045;-82
2022/12/07 02:18:44;;;;;;;6.70;1.70;;;5.20;99.90;;;;;;5063561;28;20048;-83
2022/12/07 02:21:39;;;;;;;8.43;1.80;;;5.20;99.90;;;;;;5039131;28;20053;-83
2022/12/07 02:24:42;;;;;;;6.90;2.25;;;5.10;99.90;;;;;;5044648;28;20113;-83
2022/12/07 02:27:26;;;;;;;10.80;2.40;;;5.20;99.90;;;;;;5069783;28;20052;-82
2022/12/07 02:30:01;;;;;;;13.95;2.97;;;5.50;99.90;;;;;;5054534;28;20064;-83
2022/12/07 02:32:45;;;;;;;8.80;2.30;;;5.10;99.90;;;;;;5023143;28;20052;-82
2022/12/07 02:35:39;;;;;;;10.93;2.63;;;5.10;99.90;;;;;;5052078;28;20872;-82
2022/12/07 02:38:11;;;;;;;12.75;2.60;;;5.00;99.90;;;;;;5053564;28;20065;-83
2022/12/07 02:40:42;;;;;;;14.52;2.65;;;5.10;99.90;;;;;;5035657;28;20452;-82
2022/12/07 02:43:21;;;;;;;7.95;1.85;;;6.10;99.90;;;;;;5046417;28;20448;-82
2022/12/07 02:45:47;;;;;;;10.60;1.95;;;5.10;99.90;;;;;;5059342;28;20046;-83
2022/12/07 02:48:16;;;;;;;8.40;2.05;;;6.40;99.90;;;;;;5053436;28;20493;-82
2022/12/07 02:50:52;;;;;;;7.60;1.92;;;5.10;99.90;;;;;;5048564;28;20040;-83
2022/12/07 02:53:39;;;;;;;7.25;2.10;;;5.90;99.90;;;;;;5040684;28;20741;-82
2022/12/07 02:56:37;;;;;;;9.13;1.70;;;5.30;99.90;;;;;;5062645;28;20053;-83
2022/12/07 02:59:25;;;;;;;7.20;1.60;;;5.20;99.90;;;;;;5037438;28;20053;-82
2022/12/07 03:01:56;;;;;;;9.68;1.80;;;5.20;99.90;;;;;;5015358;28;20053;-83
2022/12/07 03:04:41;;;;;;;10.25;2.10;;;5.20;99.90;;;;;;5037152;28;20365;-82
2022/12/07 03:07:29;;;;;;;6.25;1.80;;;5.20;99.90;;;;;;5069755;28;20059;-82
2022/12/07 03:10:22;;;;;;;4.30;1.45;;;5.10;99.90;;;;;;5037118;28;20048;-82
2022/12/07 03:13:13;;;;;;;4.03;1.33;;;5.20;99.90;;;;;;5038824;28;20052;-83
2022/12/07 03:15:47;;;;;;;6.75;1.60;;;5.10;99.90;;;;;;5065244;28;20049;-82
2022/12/07 03:18:16;;;;;;;6.43;1.52;;;5.10;99.90;;;;;;5059846;28;20055;-82
2022/12/07 03:20:45;;;;;;;8.25;1.80;;;5.10;99.90;;;;;;5041350;28;20048;-82
2022/12/07 03:23:12;;;;;;;5.75;1.40;;;5.10;99.90;;;;;;5043697;28;20060;-82
2022/12/07 03:25:48;;;;;;;5.63;1.67;;;5.10;99.90;;;;;;5059191;28;20053;-82
2022/12/07 03:28:19;;;;;;;11.23;2.17;;;5.10;99.90;;;;;;5037947;28;20087;-82
2022/12/07 03:30:51;;;;;;;6.22;1.38;;;6.30;99.90;;;;;;5057838;28;20048;-82
2022/12/07 03:33:41;;;;;;;9.10;1.85;;;5.20;99.90;;;;;;5054924;28;20056;-83
2022/12/07 03:36:35;;;;;;;7.88;1.80;;;5.20;99.90;;;;;;5040590;28;20139;-82
2022/12/07 03:39:27;;;;;;;9.45;1.70;;;5.10;99.90;;;;;;5023603;28;20084;-82
2022/12/07 03:41:55;;;;;;;7.43;1.92;;;5.70;99.90;;;;;;5031827;28;20053;-83
2022/12/07 03:44:23;;;;;;;6.68;1.70;;;5.10;99.90;;;;;;5032758;28;20071;-82
2022/12/07 03:47:22;;;;;;;5.00;1.70;;;5.10;99.90;;;;;;5018159;28;20132;-82
2022/12/07 03:49:58;;;;;;;8.32;1.95;;;5.30;99.90;;;;;;5054052;28;20136;-82
2022/12/07 03:52:38;;;;;;;7.80;1.80;;;5.20;99.90;;;;;;5072583;28;20048;-83
2022/12/07 03:55:19;;;;;;;10.18;1.75;;;5.10;99.90;;;;;;5072664;28;20044;-82
2022/12/07 03:57:48;;;;;;;15.95;2.42;;;5.10;99.90;;;;;;5072548;28;20131;-83
2022/12/07 04:00:15;;;;;;;5.93;1.60;;;6.30;99.90;;;;;;5054416;28;20044;-83
2022/12/07 04:02:42;;;;;;;5.32;1.38;;;5.10;99.90;;;;;;5037493;28;20117;-82
2022/12/07 04:05:10;;;;;;;6.82;1.63;;;5.80;99.90;;;;;;5019897;28;20060;-82
2022/12/07 04:07:35;;;;;;;5.35;1.38;;;5.00;99.90;;;;;;5033791;28;20051;-82
2022/12/07 04:10:01;;;;;;;8.43;1.80;;;5.20;99.90;;;;;;5059670;28;20044;-82
2022/12/07 04:12:27;;;;;;;5.03;1.55;;;4.90;99.90;;;;;;5035223;28;20110;-82
2022/12/07 04:14:52;;;;;;;8.48;2.05;;;4.90;99.90;;;;;;5032080;28;20114;-82
2022/12/07 04:17:18;;;;;;;6.75;1.50;;;5.30;99.90;;;;;;5031598;28;20049;-82
2022/12/07 04:19:44;;;;;;;9.68;1.50;;;4.90;99.90;;;;;;5058205;28;20128;-82
2022/12/07 04:22:10;;;;;;;6.07;1.58;;;4.90;99.90;;;;;;5033613;28;20093;-81
2022/12/07 04:24:35;;;;;;;8.30;1.55;;;4.90;99.90;;;;;;5038649;28;20060;-82
2022/12/07 04:27:01;;;;;;;8.77;1.77;;;4.90;99.90;;;;;;5063787;28;20044;-82
2022/12/07 04:29:27;;;;;;;6.25;1.90;;;4.90;99.90;;;;;;5037781;28;20117;-82
2022/12/07 04:31:53;;;;;;;6.50;1.70;;;4.80;99.90;;;;;;5028888;28;20137;-82
2022/12/07 04:34:19;;;;;;;10.38;1.85;;;4.80;99.90;;;;;;5051911;28;20049;-82
2022/12/07 04:36:46;;;;;;;7.07;1.85;;;5.70;99.90;;;;;;5051076;28;20053;-82
2022/12/07 04:39:22;;;;;;;8.07;1.52;;;4.70;99.90;;;;;;5033420;28;20075;-82
2022/12/07 04:41:48;;;;;;;13.43;2.10;;;6.10;99.90;;;;;;5042682;28;20125;-82
2022/12/07 04:44:15;;;;;;;10.77;2.03;;;5.20;99.90;;;;;;5047043;28;20520;-82
2022/12/07 04:46:41;;;;;;;8.45;1.75;;;4.80;99.90;;;;;;5022540;28;20052;-82
2022/12/07 04:49:07;;;;;;;7.00;1.80;;;5.20;99.90;;;;;;5070563;28;20057;-82
2022/12/07 04:51:33;;;;;;;8.25;1.73;;;5.60;99.90;;;;;;5055461;28;20052;-82
2022/12/07 04:53:58;;;;;;;5.20;1.70;;;4.90;99.90;;;;;;5038850;28;20049;-83
2022/12/07 04:56:24;;;;;;;5.47;1.50;;;6.10;99.90;;;;;;5054776;28;20146;-82
2022/12/07 04:58:52;;;;;;;6.50;1.58;;;4.80;99.90;;;;;;5052926;28;20059;-82
2022/12/07 05:01:18;;;;;;;6.00;1.45;;;4.70;99.90;;;;;;5042612;28;20052;-82
2022/12/07 05:03:44;;;;;;;5.75;1.80;;;4.70;99.90;;;;;;5046947;28;20041;-82
2022/12/07 05:06:11;;;;;;;6.60;1.60;;;4.60;99.90;;;;;;5047145;28;20051;-82
2022/12/07 05:08:37;;;;;;;7.82;1.75;;;4.60;99.90;;;;;;5056783;28;20139;-82
2022/12/07 05:11:04;;;;;;;7.00;1.70;;;4.50;99.90;;;;;;5039196;28;20386;-82
2022/12/07 05:13:30;;;;;;;6.78;1.50;;;4.40;99.90;;;;;;5040213;28;20354;-82
2022/12/07 05:15:55;;;;;;;5.95;1.70;;;4.40;99.90;;;;;;5046049;28;20044;-82
2022/12/07 05:18:21;;;;;;;7.28;1.60;;;4.40;99.90;;;;;;5073125;28;20117;-83
2022/12/07 05:20:47;;;;;;;7.93;1.90;;;4.40;99.90;;;;;;5056815;28;20075;-82
2022/12/07 05:23:12;;;;;;;6.90;1.80;;;4.70;99.90;;;;;;5056941;28;20045;-82
2022/12/07 05:25:38;;;;;;;8.45;2.47;;;5.60;99.90;;;;;;5037634;28;20064;-83
2022/12/07 05:28:04;;;;;;;5.78;1.70;;;5.20;99.90;;;;;;5039679;28;20079;-82
2022/12/07 05:30:30;;;;;;;4.88;1.70;;;4.60;99.90;;;;;;5071031;28;20099;-82
2022/12/07 05:32:56;;;;;;;7.15;2.92;;;4.30;99.90;;;;;;5025528;28;20473;-81
2022/12/07 05:35:22;;;;;;;7.45;2.30;;;5.60;99.90;;;;;;5033662;28;20055;-82
2022/12/07 05:37:48;;;;;;;6.35;1.70;;;4.20;99.90;;;;;;5033907;28;20061;-82
2022/12/07 05:40:14;;;;;;;7.63;1.92;;;4.20;99.90;;;;;;5016757;28;20537;-82
2022/12/07 05:42:41;;;;;;;10.05;2.22;;;4.20;99.90;;;;;;5030451;28;20044;-82
2022/12/07 05:45:07;;;;;;;8.20;2.10;;;4.10;99.90;;;;;;5045756;28;20425;-82
2022/12/07 05:47:33;;;;;;;8.45;2.33;;;4.20;99.90;;;;;;5068290;28;20049;-83
2022/12/07 05:49:59;;;;;;;8.77;2.22;;;4.10;99.90;;;;;;5070555;28;20489;-83
2022/12/07 05:52:25;;;;;;;7.60;2.42;;;5.50;99.90;;;;;;5037720;28;20048;-83
2022/12/07 05:54:51;;;;;;;12.18;2.70;;;4.60;99.90;;;;;;5063552;28;20327;-83
2022/12/07 05:57:17;;;;;;;12.10;2.50;;;4.10;99.90;;;;;;5063305;28;20127;-83
2022/12/07 05:59:42;;;;;;;11.60;2.70;;;4.00;99.90;;;;;;5068408;28;20041;-82
2022/12/07 06:02:11;;;;;;;10.27;2.30;;;4.00;99.90;;;;;;5056726;28;20049;-82
2022/12/07 06:04:43;;;;;;;8.50;2.65;;;4.00;99.90;;;;;;5064359;28;20041;-83
2022/12/07 06:07:10;;;;;;;14.55;2.85;;;3.90;99.90;;;;;;5052469;28;20135;-82
2022/12/07 06:09:36;;;;;;;9.32;2.33;;;5.50;99.90;;;;;;5023555;28;20138;-83
2022/12/07 06:14:46;;;;;;;7.80;2.13;;;4.10;99.90;;;;;;5042389;28;20056;-83
2022/12/07 06:17:12;;;;;;;8.43;2.15;;;4.10;99.90;;;;;;5054609;28;20049;-82
2022/12/07 06:19:39;;;;;;;8.27;1.90;;;4.20;99.90;;;;;;5037088;28;20041;-82
2022/12/07 06:22:04;;;;;;;13.05;2.28;;;5.50;99.90;;;;;;5045464;28;20080;-83
2022/12/07 06:24:31;;;;;;;8.48;2.17;;;4.20;99.90;;;;;;5046931;28;20083;-83
2022/12/07 06:26:56;;;;;;;7.70;1.80;;;5.30;99.90;;;;;;5054246;28;20137;-83
2022/12/07 06:29:22;;;;;;;8.55;2.05;;;4.30;99.90;;;;;;5052461;28;20080;-83
2022/12/07 06:31:48;;;;;;;7.03;2.08;;;4.30;99.90;;;;;;5073208;28;20492;-83
2022/12/07 06:34:16;;;;;;;9.38;2.20;;;5.80;99.90;;;;;;5039616;28;20051;-83
2022/12/07 06:36:42;;;;;;;7.82;2.10;;;4.60;99.90;;;;;;5050033;28;20075;-83
2022/12/07 06:39:08;;;;;;;9.10;1.98;;;4.30;99.90;;;;;;5059893;28;20052;-83
2022/12/07 06:41:38;;;;;;;8.25;2.30;;;4.60;99.90;;;;;;5048350;28;20048;-84
2022/12/07 06:44:05;;;;;;;7.05;1.98;;;4.20;99.90;;;;;;5047926;28;20041;-83
2022/12/07 06:46:31;;;;;;;8.75;2.03;;;4.20;99.90;;;;;;5054097;28;20049;-83
2022/12/07 06:48:57;;;;;;;6.20;2.03;;;4.20;99.90;;;;;;5053495;28;20481;-83
2022/12/07 06:51:23;;;;;;;10.50;2.00;;;5.40;99.90;;;;;;5018523;28;20079;-83
2022/12/07 06:53:48;;;;;;;8.68;2.03;;;4.10;99.90;;;;;;5053175;28;20127;-84
2022/12/07 06:56:14;;;;;;;6.18;1.90;;;4.00;99.90;;;;;;5053262;28;20136;-83
2022/12/07 06:58:40;;;;;;;9.57;2.10;;;4.00;99.90;;;;;;5035358;28;20481;-83
2022/12/07 07:01:17;;;;;;;9.48;1.88;;;4.00;99.90;;;;;;5034678;28;20481;-83
2022/12/07 07:03:44;;;;;;;9.88;2.38;;;4.10;99.90;;;;;;5018924;28;20369;-83
2022/12/07 07:06:10;;;;;;;9.18;2.42;;;3.90;99.90;;;;;;5015021;28;20137;-83
2022/12/07 07:08:37;;;;;;;6.65;1.90;;;4.00;99.90;;;;;;5033197;28;20045;-83
2022/12/07 07:11:03;;;;;;;7.88;1.77;;;4.00;99.90;;;;;;5032782;28;20045;-83
2022/12/07 07:13:28;;;;;;;5.93;1.70;;;4.20;99.90;;;;;;5033261;28;20045;-83
2022/12/07 07:15:55;;;;;;;6.50;1.80;;;4.20;99.90;;;;;;4998048;28;20129;-83
2022/12/07 07:18:21;;;;;;;6.97;1.80;;;4.20;99.90;;;;;;5015487;28;20041;-83
2022/12/07 07:20:47;;;;;;;5.38;1.70;;;4.30;99.90;;;;;;5024545;28;20052;-83
2022/12/07 07:23:12;;;;;;;6.47;1.70;;;5.60;99.90;;;;;;5031854;28;20563;-83
2022/12/07 07:25:39;;;;;;;6.57;1.70;;;4.30;99.90;;;;;;5034558;28;20053;-84
2022/12/07 07:28:04;;;;;;;8.63;1.80;;;4.30;99.90;;;;;;5035041;28;20044;-83
2022/12/07 07:30:33;;;;;;;6.82;1.70;;;5.50;99.90;;;;;;5035408;28;20386;-83
2022/12/07 07:33:02;;;;;;;4.35;1.70;;;4.20;99.90;;;;;;5035591;28;20055;-83
2022/12/07 07:35:29;;;;;;;5.28;1.95;;;4.30;99.90;;;;;;5064556;28;20105;-83
2022/12/07 07:37:55;;;;;;;6.10;2.00;;;4.20;99.90;;;;;;5036021;28;20053;-83
2022/12/07 07:40:21;;;;;;;9.23;2.45;;;4.70;99.90;;;;;;5032602;28;20053;-83
2022/12/07 07:42:48;;;;;;;9.05;2.00;;;5.20;99.90;;;;;;5016091;28;20076;-84
2022/12/07 07:45:14;;;;;;;7.68;2.50;;;4.20;99.90;;;;;;5033993;28;20051;-83
2022/12/07 07:47:40;;;;;;;9.25;2.30;;;5.10;99.90;;;;;;5014390;28;20406;-83
2022/12/07 07:50:06;;;;;;;7.53;2.50;;;4.20;99.90;;;;;;5032513;28;20129;-84
2022/12/07 07:52:32;;;;;;;8.00;2.40;;;4.20;99.90;;;;;;5032238;28;20093;-84
2022/12/07 07:54:58;;;;;;;10.07;2.30;;;4.10;99.90;;;;;;5037808;28;20401;-83
2022/12/07 07:57:23;;;;;;;9.55;2.40;;;4.00;99.90;;;;;;5053496;28;20409;-86
2022/12/07 07:59:49;;;;;;;7.18;1.90;;;4.00;99.90;;;;;;5018516;28;20055;-84
2022/12/07 08:02:17;;;;;;;10.05;1.92;;;5.20;99.90;;;;;;5054059;28;20120;-84
2022/12/07 08:04:43;;;;;;;6.25;1.77;;;4.00;99.90;;;;;;5054126;28;20101;-84
2022/12/07 08:07:09;;;;;;;10.90;2.60;;;4.00;99.90;;;;;;5035882;28;20052;-83
2022/12/07 08:09:34;;;;;;;10.25;3.20;;;5.10;99.90;;;;;;5054568;28;20056;-84
2022/12/07 08:12:00;;;;;;;10.48;3.10;;;4.10;99.90;;;;;;5072123;28;20055;-83
2022/12/07 08:14:27;;;;;;;10.15;2.80;;;4.80;99.90;;;;;;5058346;28;20139;-83
2022/12/07 08:16:53;;;;;;;11.65;2.80;;;4.20;99.90;;;;;;5038791;28;20048;-83
2022/12/07 08:19:18;;;;;;;4.82;2.60;;;4.30;99.90;;;;;;5059786;28;20400;-83
2022/12/07 08:21:44;;;;;;;10.23;2.83;;;5.10;99.90;;;;;;5035441;28;20053;-84
2022/12/07 08:24:10;;;;;;;10.15;2.78;;;4.30;99.90;;;;;;5020133;28;20060;-83
2022/12/07 08:26:35;;;;;;;10.45;2.65;;;5.00;99.90;;;;;;5019116;28;20148;-83
2022/12/07 08:29:01;;;;;;;8.60;2.45;;;5.00;99.90;;;;;;5038955;28;20099;-84
2022/12/07 08:31:28;;;;;;;11.45;2.55;;;4.90;99.90;;;;;;5024923;28;20049;-84
2022/12/07 08:33:54;;;;;;;14.32;2.50;;;4.50;99.90;;;;;;5058552;28;20131;-84
2022/12/07 08:36:21;;;;;;;7.90;2.45;;;4.50;99.90;;;;;;5060606;28;20140;-85
2022/12/07 08:38:47;;;;;;;7.45;2.47;;;4.60;99.90;;;;;;5016680;28;20084;-85
2022/12/07 08:41:13;;;;;;;15.73;3.10;;;4.60;99.90;;;;;;5033892;28;20080;-84
2022/12/07 08:43:38;;;;;;;8.18;2.53;;;4.70;99.90;;;;;;5044025;28;20087;-85
2022/12/07 08:46:13;;;;;;;12.25;2.83;;;5.40;99.90;;;;;;5030994;28;20057;-84
2022/12/07 08:49:01;;;;;;;11.95;2.20;;;4.90;99.90;;;;;;5031633;28;20390;-85
2022/12/07 08:51:28;;;;;;;7.78;2.10;;;5.00;99.90;;;;;;5043596;28;20420;-85
2022/12/07 08:53:55;;;;;;;9.55;1.92;;;6.00;99.90;;;;;;5029942;28;20049;-85
2022/12/07 08:56:22;;;;;;;12.75;1.90;;;5.20;99.90;;;;;;5028044;28;20463;-86
2022/12/07 08:58:48;;;;;;;13.27;2.40;;;5.40;99.90;;;;;;5023973;28;20501;-85
2022/12/07 09:01:14;;;;;;;12.73;2.47;;;5.50;99.90;;;;;;5023280;28;20346;-86
2022/12/07 09:03:40;;;;;;;8.50;1.92;;;5.80;99.90;;;;;;5024299;28;20040;-86
2022/12/07 09:06:06;;;;;;;8.40;2.25;;;5.80;99.90;;;;;;5041238;28;20045;-86
2022/12/07 09:08:39;;;;;;;11.32;2.25;;;6.00;99.90;;;;;;5059049;28;20123;-86
2022/12/07 09:11:05;;;;;;;15.98;2.88;;;6.20;99.90;;;;;;5024626;28;20060;-86
2022/12/07 09:13:31;;;;;;;13.80;2.42;;;6.70;99.90;;;;;;5038376;28;20053;-86
2022/12/07 09:15:56;;;;;;;9.95;2.25;;;6.70;99.90;;;;;;5022947;28;20052;-86
2022/12/07 09:18:24;;;;;;;8.07;2.13;;;7.50;99.90;;;;;;5023877;28;20133;-82
2022/12/07 09:20:49;;;;;;;9.27;2.00;;;6.30;99.90;;;;;;5041080;28;20179;-85
2022/12/07 09:23:15;;;;;;;8.20;2.30;;;6.50;99.90;;;;;;5040830;28;20092;-85
2022/12/07 09:25:41;;;;;;;9.02;2.25;;;6.60;99.90;;;;;;5037441;28;20041;-85
2022/12/07 09:28:06;;;;;;;8.75;1.92;;;6.90;99.90;;;;;;5021106;28;20053;-85
2022/12/07 09:30:32;;;;;;;3.97;1.60;;;7.60;99.90;;;;;;5021217;28;20049;-84
2022/12/07 09:32:58;;;;;;;8.27;2.08;;;7.60;99.90;;;;;;5038240;28;20122;-84
2022/12/07 09:35:24;;;;;;;4.20;1.60;;;7.00;99.90;;;;;;5035528;28;20095;-83
2022/12/07 09:37:50;;;;;;;6.45;1.80;;;6.80;99.90;;;;;;5045751;28;20053;-82
2022/12/07 09:40:18;;;;;;;4.43;1.63;;;6.70;99.90;;;;;;5059102;28;20132;-82
2022/12/07 09:42:47;;;;;;;6.03;1.80;;;6.60;99.90;;;;;;5066687;28;20060;-83
2022/12/07 09:45:39;;;;;;;4.65;1.48;;;7.30;99.90;;;;;;5056475;28;20060;-83
2022/12/07 09:48:05;;;;;;;4.80;1.42;;;5.30;99.90;;;;;;5030491;28;20080;-83
2022/12/07 09:50:31;;;;;;;7.10;1.77;;;6.50;99.90;;;;;;5033645;28;20053;-83
2022/12/07 09:53:16;;;;;;;8.63;1.70;;;6.90;99.90;;;;;;5033716;28;20056;-83
2022/12/07 09:55:44;;;;;;;10.00;2.20;;;6.70;99.90;;;;;;5052103;28;20480;-85
2022/12/07 09:58:22;;;;;;;5.70;1.70;;;6.90;99.90;;;;;;5058651;28;20121;-84
2022/12/07 10:00:50;;;;;;;8.30;2.22;;;6.90;99.90;;;;;;5038305;28;20412;-84
2022/12/07 10:03:15;;;;;;;6.93;1.70;;;7.10;99.90;;;;;;5054195;28;20052;-85
2022/12/07 10:05:45;;;;;;;8.68;1.77;;;6.90;99.90;;;;;;5035289;28;20099;-84
2022/12/07 10:08:12;;;;;;;6.07;1.70;;;7.20;99.90;;;;;;5073717;28;20045;-84
2022/12/07 10:10:39;;;;;;;9.00;1.98;;;7.00;99.90;;;;;;5039330;28;20489;-84
2022/12/07 10:13:07;;;;;;;7.57;1.90;;;6.50;99.90;;;;;;5035649;28;20128;-84
2022/12/07 10:15:57;;;;;;;6.85;2.28;;;8.10;99.90;;;;;;5042594;28;20443;-85
2022/12/07 10:18:31;;;;;;;10.30;2.20;;;7.30;99.90;;;;;;5053828;28;20456;-84
2022/12/07 10:21:13;;;;;;;6.38;2.15;;;7.40;99.90;;;;;;5052259;28;20447;-84
2022/12/07 10:24:14;;;;;;;7.45;2.03;;;7.50;99.90;;;;;;5035368;28;20060;-85
2022/12/07 10:26:46;;;;;;;7.20;2.40;;;7.60;99.90;;;;;;5033518;28;20084;-84
2022/12/07 10:29:17;;;;;;;9.68;2.35;;;7.70;99.90;;;;;;5074216;28;20123;-85
2022/12/07 10:31:44;;;;;;;8.82;2.15;;;7.80;99.90;;;;;;5047239;28;20449;-84
2022/12/07 10:34:29;;;;;;;10.15;2.53;;;8.50;99.90;;;;;;5075055;28;20055;-82
2022/12/07 10:37:15;;;;;;;12.18;2.75;;;9.60;99.90;;;;;;5035053;28;20075;-84
2022/12/07 10:39:41;;;;;;;;;;;8.70;99.90;;;;;;5053836;28;20448;-84
2022/12/07 10:42:15;;;;;;;10.60;2.23;;;;;;;;;;5054654;28;19928;-83
2022/12/07 10:44:43;;;;;;;10.37;2.53;;;;;;;;;;5018995;28;20394;-85
2022/12/07 10:47:29;;;;;;;12.13;2.28;;;;;;;;;;5019092;28;20291;-82
2022/12/07 10:50:08;;;;;;;8.05;2.30;;;;;;;;;;5035102;28;20049;-82
2022/12/07 10:52:37;;;;;;;11.82;2.50;;;;;;;;;;5052596;28;20067;-82
2022/12/07 10:55:22;;;;;;;11.02;2.58;;;;;;;;;;5053039;28;20045;-82
2022/12/07 10:58:07;;;;;;;9.45;2.38;;;;;;;;;;5053353;28;20072;-83
2022/12/07 11:01:01;;;;;;;10.05;2.40;;;9.10;99.90;;;;;;5034473;28;20067;-81
2022/12/07 11:03:47;;;;;;;10.52;2.70;;;9.90;99.90;;;;;;5019706;28;20053;-83
2022/12/07 11:06:22;;;;;;;6.55;2.08;;;9.30;99.90;;;;;;5037318;28;20045;-83
2022/12/07 11:09:17;;;;;;;9.73;2.70;;;8.60;99.90;;;;;;5014707;28;20048;-82
2022/12/07 11:12:23;;;;;;;10.25;1.98;;;8.30;99.90;;;;;;5016531;28;20049;-81
2022/12/07 11:15:13;;;;;;;10.73;2.20;;;8.20;99.90;;;;;;5026547;28;20096;-83
2022/12/07 11:18:24;;;;;;;7.68;2.33;;;7.90;99.90;;;;;;5033656;28;20291;-83
2022/12/07 11:20:57;;;;;;;5.93;1.70;;;7.60;99.90;;;;;;5027869;28;20144;-85
2022/12/07 11:23:41;;;;;;;8.10;2.15;;;7.40;99.90;;;;;;5023754;28;20049;-85
2022/12/07 11:26:21;;;;;;;5.75;1.88;;;7.30;99.90;;;;;;5035004;28;20088;-84
2022/12/07 11:29:13;;;;;;;8.18;1.73;;;7.30;99.90;;;;;;5018701;28;20393;-85
2022/12/07 11:32:37;;;;;;;6.50;2.00;;;7.40;99.90;;;;;;5060618;28;20146;-84
2022/12/07 11:35:20;;;;;;;7.53;2.10;;;7.60;99.90;;;;;;4965395;28;20409;-86
2022/12/07 11:37:47;;;;;;;10.85;2.10;;;8.40;99.90;;;;;;5030124;28;20095;-85
2022/12/07 11:40:35;;;;;;;9.32;1.70;;;9.10;99.90;;;;;;5033676;28;20507;-82
2022/12/07 11:43:19;;;;;;;6.57;1.70;;;10.20;99.90;;;;;;5067731;28;20132;-81
2022/12/07 11:45:52;;;;;;;8.60;2.25;;;9.50;99.90;;;;;;5059888;28;20053;-81
2022/12/07 11:48:25;;;;;;;8.73;1.80;;;9.40;99.90;;;;;;5045287;28;20040;-80
2022/12/07 11:50:54;;;;;;;8.75;2.22;;;9.80;99.90;;;;;;5053608;28;20048;-81
2022/12/07 11:53:27;;;;;;;5.53;1.80;;;9.70;99.90;;;;;;5066290;28;20044;-82
2022/12/07 11:55:58;;;;;;;5.97;1.98;;;9.40;99.90;;;;;;5035060;28;20056;-81
2022/12/07 11:58:35;;;;;;;4.57;2.00;;;9.40;99.90;;;;;;5045336;28;20044;-82
2022/12/07 12:01:13;;;;;;;3.95;1.75;;;9.40;99.90;;;;;;5043051;28;20045;-80
2022/12/07 12:03:46;;;;;;;6.32;1.92;;;9.30;99.90;;;;;;5063931;28;20052;-80
2022/12/07 12:06:12;;;;;;;4.95;1.80;;;9.40;99.90;;;;;;5066488;28;20397;-80
2022/12/07 12:08:47;;;;;;;9.60;2.17;;;9.50;99.90;;;;;;5043212;28;20136;-80
2022/12/07 12:11:31;;;;;;;6.37;2.50;;;9.40;99.90;;;;;;5042119;28;20114;-80
2022/12/07 12:14:12;;;;;;;10.30;2.65;;;9.20;99.90;;;;;;5044481;28;20288;-82
2022/12/07 12:17:08;;;;;;;8.75;1.95;;;8.90;99.90;;;;;;5042032;28;20497;-81
2022/12/07 12:20:12;;;;;;;6.82;2.00;;;8.70;99.90;;;;;;5045309;28;20053;-81
2022/12/07 12:22:41;;;;;;;10.30;1.88;;;8.50;99.90;;;;;;5025249;28;20056;-75
2022/12/07 12:25:24;;;;;;;7.72;2.08;;;8.20;99.90;;;;;;5071972;28;20186;-82
2022/12/07 12:27:53;;;;;;;10.18;2.45;;;8.10;99.90;;;;;;5071901;28;20455;-82
2022/12/07 12:30:36;;;;;;;7.85;1.92;;;7.90;99.90;;;;;;5051502;28;20111;-82
2022/12/07 12:33:28;;;;;;;9.30;1.90;;;7.80;99.90;;;;;;5062613;28;20045;-82
2022/12/07 12:36:15;;;;;;;11.15;2.10;;;7.70;99.90;;;;;;5071971;28;20390;-82
2022/12/07 12:39:08;;;;;;;10.40;1.85;;;7.70;99.90;;;;;;5014908;28;20053;-82
2022/12/07 12:41:38;;;;;;;7.40;1.80;;;7.80;99.90;;;;;;4997957;28;20136;-82
2022/12/07 12:44:29;;;;;;;10.52;1.80;;;7.80;99.90;;;;;;5014219;28;20490;-82
2022/12/07 12:47:25;;;;;;;11.07;2.13;;;7.90;99.90;;;;;;5003557;28;20128;-82
2022/12/07 12:50:21;;;;;;;8.27;1.77;;;7.90;99.90;;;;;;5013743;28;20132;-82
2022/12/07 12:52:55;;;;;;;9.35;1.80;;;7.90;99.90;;;;;;5031739;28;20050;-82
2022/12/07 12:55:49;;;;;;;8.07;1.90;;;8.20;99.90;;;;;;5047943;28;20175;-82
2022/12/07 12:58:17;;;;;;;6.13;1.85;;;7.70;99.90;;;;;;5028647;28;20103;-82
2022/12/07 13:00:47;;;;;;;5.50;1.70;;;7.60;99.90;;;;;;5053841;28;20048;-82
2022/12/07 13:03:26;;;;;;;12.65;2.58;;;7.50;99.90;;;;;;5055407;28;20501;-82
2022/12/07 13:06:23;;;;;;;5.95;1.65;;;7.40;99.90;;;;;;5055036;28;20049;-82
2022/12/07 13:08:49;;;;;;;5.95;1.50;;;7.20;99.90;;;;;;5035819;28;20413;-82
2022/12/07 13:11:28;;;;;;;6.05;1.70;;;7.30;99.90;;;;;;5053957;28;20060;-82
2022/12/07 13:14:31;;;;;;;5.57;2.00;;;7.30;99.90;;;;;;5055438;28;20060;-82
2022/12/07 13:16:57;;;;;;;6.50;2.60;;;6.90;99.90;;;;;;5037021;28;20064;-82
2022/12/07 13:19:41;;;;;;;8.65;2.47;;;6.90;99.90;;;;;;5055180;28;20049;-82
2022/12/07 13:22:32;;;;;;;8.23;2.30;;;7.60;99.90;;;;;;5020670;28;20465;-82
2022/12/07 13:25:25;;;;;;;7.75;1.95;;;6.90;99.90;;;;;;5054919;28;20413;-82
2022/12/07 13:27:58;;;;;;;5.15;2.30;;;6.90;99.90;;;;;;4978294;28;20049;-84